sensor_id;sensor_type;location;lat;lon;timestamp;pressure;altitude;pressure_sealevel;temperature;humidity
42671;BME280;28283;55.426;37.756;2023-09-19T00:03:40;99932.78;;;12.49;77.24
42671;BME280;28283;55.426;37.756;2023-09-19T00:08:41;99924.84;;;12.41;77.73
42671;BME280;28283;55.426;37.756;2023-09-19T00:13:47;99930.00;;;12.36;77.61
42671;BME280;28283;55.426;37.756;2023-09-19T00:18:50;99933.13;;;12.33;78.12
42671;BME280;28283;55.426;37.756;2023-09-19T00:23:50;99927.91;;;12.31;78.49
42671;BME280;28283;55.426;37.756;2023-09-19T00:28:52;99928.75;;;12.32;78.08
42671;BME280;28283;55.426;37.756;2023-09-19T00:33:52;99926.88;;;12.32;78.36
42671;BME280;28283;55.426;37.756;2023-09-19T00:38:53;99932.25;;;12.32;78.44
42671;BME280;28283;55.426;37.756;2023-09-19T00:43:54;99942.41;;;12.30;78.42
42671;BME280;28283;55.426;37.756;2023-09-19T00:48:54;99943.47;;;12.29;78.79
42671;BME280;28283;55.426;37.756;2023-09-19T00:53:54;99941.41;;;12.31;77.79
42671;BME280;28283;55.426;37.756;2023-09-19T00:58:55;99933.69;;;12.28;78.02
42671;BME280;28283;55.426;37.756;2023-09-19T01:03:57;99927.03;;;12.24;77.86
42671;BME280;28283;55.426;37.756;2023-09-19T01:08:57;99925.56;;;12.21;78.02
42671;BME280;28283;55.426;37.756;2023-09-19T01:14:01;99929.69;;;12.17;78.18
42671;BME280;28283;55.426;37.756;2023-09-19T01:19:19;99934.47;;;12.22;78.11
42671;BME280;28283;55.426;37.756;2023-09-19T01:29:35;99946.88;;;12.16;78.00
42671;BME280;28283;55.426;37.756;2023-09-19T01:34:49;99928.19;;;12.08;78.32
42671;BME280;28283;55.426;37.756;2023-09-19T01:39:56;99937.47;;;12.06;78.68
42671;BME280;28283;55.426;37.756;2023-09-19T01:45:06;99938.91;;;12.01;78.25
42671;BME280;28283;55.426;37.756;2023-09-19T01:55:10;99918.97;;;11.96;78.65
42671;BME280;28283;55.426;37.756;2023-09-19T02:00:15;99908.75;;;11.91;79.05
42671;BME280;28283;55.426;37.756;2023-09-19T02:05:23;99870.63;;;11.66;79.50
42671;BME280;28283;55.426;37.756;2023-09-19T02:10:27;99902.72;;;11.89;79.20
42671;BME280;28283;55.426;37.756;2023-09-19T02:15:28;99902.28;;;11.85;79.33
42671;BME280;28283;55.426;37.756;2023-09-19T02:20:28;99916.72;;;11.78;80.32
42671;BME280;28283;55.426;37.756;2023-09-19T02:25:29;99907.56;;;11.72;79.83
42671;BME280;28283;55.426;37.756;2023-09-19T02:30:31;99897.97;;;11.63;81.06
42671;BME280;28283;55.426;37.756;2023-09-19T02:35:31;99898.09;;;11.55;81.70
42671;BME280;28283;55.426;37.756;2023-09-19T02:40:35;99892.44;;;11.50;81.54
42671;BME280;28283;55.426;37.756;2023-09-19T02:45:36;99882.59;;;11.35;81.29
42671;BME280;28283;55.426;37.756;2023-09-19T02:50:37;99879.81;;;11.28;82.29
42671;BME280;28283;55.426;37.756;2023-09-19T02:55:39;99882.75;;;11.27;81.76
42671;BME280;28283;55.426;37.756;2023-09-19T03:00:43;99878.00;;;11.29;82.99
42671;BME280;28283;55.426;37.756;2023-09-19T03:05:47;99880.16;;;11.19;82.47
42671;BME280;28283;55.426;37.756;2023-09-19T03:10:48;99879.53;;;11.17;83.29
42671;BME280;28283;55.426;37.756;2023-09-19T03:15:48;99894.84;;;11.16;83.27
42671;BME280;28283;55.426;37.756;2023-09-19T03:20:54;99893.63;;;11.19;82.91
42671;BME280;28283;55.426;37.756;2023-09-19T03:25:55;99885.63;;;11.25;83.56
42671;BME280;28283;55.426;37.756;2023-09-19T03:30:59;99890.16;;;11.25;83.15
42671;BME280;28283;55.426;37.756;2023-09-19T03:36:01;99883.56;;;11.27;82.87
42671;BME280;28283;55.426;37.756;2023-09-19T03:41:05;99881.16;;;11.39;83.37
42671;BME280;28283;55.426;37.756;2023-09-19T03:46:05;99881.84;;;11.41;83.84
42671;BME280;28283;55.426;37.756;2023-09-19T03:51:07;99879.34;;;11.40;84.03
42671;BME280;28283;55.426;37.756;2023-09-19T03:56:08;99879.78;;;11.43;84.08
42671;BME280;28283;55.426;37.756;2023-09-19T04:01:08;99870.16;;;11.56;84.80
42671;BME280;28283;55.426;37.756;2023-09-19T04:06:09;99881.25;;;11.46;84.65
42671;BME280;28283;55.426;37.756;2023-09-19T04:11:10;99886.44;;;11.48;84.60
42671;BME280;28283;55.426;37.756;2023-09-19T04:16:10;99884.97;;;11.45;84.61
42671;BME280;28283;55.426;37.756;2023-09-19T04:21:11;99879.44;;;11.53;84.46
42671;BME280;28283;55.426;37.756;2023-09-19T04:26:12;99874.50;;;11.57;84.11
42671;BME280;28283;55.426;37.756;2023-09-19T04:31:13;99880.13;;;11.62;84.75
42671;BME280;28283;55.426;37.756;2023-09-19T04:36:14;99873.50;;;11.64;84.54
42671;BME280;28283;55.426;37.756;2023-09-19T04:41:15;99876.25;;;11.71;84.47
42671;BME280;28283;55.426;37.756;2023-09-19T04:46:16;99872.00;;;11.83;83.98
42671;BME280;28283;55.426;37.756;2023-09-19T04:51:17;99861.63;;;11.80;83.93
42671;BME280;28283;55.426;37.756;2023-09-19T04:56:20;99856.03;;;11.82;84.23
42671;BME280;28283;55.426;37.756;2023-09-19T05:01:21;99858.16;;;11.87;84.55
42671;BME280;28283;55.426;37.756;2023-09-19T05:06:22;99847.25;;;11.95;83.70
42671;BME280;28283;55.426;37.756;2023-09-19T05:11:23;99832.81;;;12.02;83.65
42671;BME280;28283;55.426;37.756;2023-09-19T05:16:24;99825.09;;;11.99;84.19
42671;BME280;28283;55.426;37.756;2023-09-19T05:21:24;99842.97;;;12.07;84.16
42671;BME280;28283;55.426;37.756;2023-09-19T05:26:25;99844.47;;;12.16;84.09
42671;BME280;28283;55.426;37.756;2023-09-19T05:31:25;99834.38;;;12.32;84.36
42671;BME280;28283;55.426;37.756;2023-09-19T05:36:26;99839.81;;;12.38;84.15
42671;BME280;28283;55.426;37.756;2023-09-19T05:41:26;99830.09;;;12.44;84.33
42671;BME280;28283;55.426;37.756;2023-09-19T05:46:27;99836.53;;;12.50;84.01
42671;BME280;28283;55.426;37.756;2023-09-19T05:51:29;99830.97;;;12.58;84.47
42671;BME280;28283;55.426;37.756;2023-09-19T05:56:30;99831.84;;;12.78;84.49
42671;BME280;28283;55.426;37.756;2023-09-19T06:01:31;99831.06;;;12.91;83.40
42671;BME280;28283;55.426;37.756;2023-09-19T06:06:34;99830.22;;;12.91;83.92
42671;BME280;28283;55.426;37.756;2023-09-19T06:11:39;99829.81;;;12.87;83.82
42671;BME280;28283;55.426;37.756;2023-09-19T06:16:41;99824.63;;;12.92;84.38
42671;BME280;28283;55.426;37.756;2023-09-19T06:21:42;99825.69;;;13.11;84.23
42671;BME280;28283;55.426;37.756;2023-09-19T06:26:42;99823.84;;;13.25;83.00
42671;BME280;28283;55.426;37.756;2023-09-19T06:31:44;99825.13;;;13.36;83.74
42671;BME280;28283;55.426;37.756;2023-09-19T06:36:44;99833.84;;;13.51;83.31
42671;BME280;28283;55.426;37.756;2023-09-19T06:41:45;99823.03;;;13.65;83.39
42671;BME280;28283;55.426;37.756;2023-09-19T06:46:46;99815.34;;;13.75;82.92
42671;BME280;28283;55.426;37.756;2023-09-19T06:51:50;99824.66;;;13.72;83.00
42671;BME280;28283;55.426;37.756;2023-09-19T06:56:50;99799.28;;;13.87;82.63
42671;BME280;28283;55.426;37.756;2023-09-19T07:01:50;99811.72;;;14.08;83.17
42671;BME280;28283;55.426;37.756;2023-09-19T07:06:51;99810.50;;;14.56;82.38
42671;BME280;28283;55.426;37.756;2023-09-19T07:11:51;99809.75;;;14.80;81.40
42671;BME280;28283;55.426;37.756;2023-09-19T07:16:52;99809.81;;;14.74;81.47
42671;BME280;28283;55.426;37.756;2023-09-19T07:21:55;99812.69;;;14.79;81.02
42671;BME280;28283;55.426;37.756;2023-09-19T07:26:58;99828.88;;;14.85;80.89
42671;BME280;28283;55.426;37.756;2023-09-19T07:31:59;99826.16;;;14.85;80.89
42671;BME280;28283;55.426;37.756;2023-09-19T07:36:59;99830.91;;;14.97;80.66
42671;BME280;28283;55.426;37.756;2023-09-19T07:42:00;99828.88;;;15.17;80.89
42671;BME280;28283;55.426;37.756;2023-09-19T07:47:01;99817.06;;;15.37;80.27
42671;BME280;28283;55.426;37.756;2023-09-19T07:52:03;99811.75;;;15.49;80.18
42671;BME280;28283;55.426;37.756;2023-09-19T07:57:04;99796.72;;;15.78;79.83
42671;BME280;28283;55.426;37.756;2023-09-19T08:02:05;99788.16;;;15.99;79.54
42671;BME280;28283;55.426;37.756;2023-09-19T08:07:05;99784.97;;;16.21;79.05
42671;BME280;28283;55.426;37.756;2023-09-19T08:12:06;99784.59;;;16.36;78.40
42671;BME280;28283;55.426;37.756;2023-09-19T08:17:08;99785.66;;;16.35;78.32
42671;BME280;28283;55.426;37.756;2023-09-19T08:22:08;99790.97;;;16.41;77.76
42671;BME280;28283;55.426;37.756;2023-09-19T08:27:10;99794.66;;;16.77;77.96
42671;BME280;28283;55.426;37.756;2023-09-19T08:32:12;99775.81;;;17.25;77.20
42671;BME280;28283;55.426;37.756;2023-09-19T08:37:12;99777.72;;;17.60;76.25
42671;BME280;28283;55.426;37.756;2023-09-19T08:42:13;99774.19;;;17.59;75.52
42671;BME280;28283;55.426;37.756;2023-09-19T08:47:15;99764.59;;;17.45;76.12
42671;BME280;28283;55.426;37.756;2023-09-19T08:57:25;99749.09;;;17.81;74.58
42671;BME280;28283;55.426;37.756;2023-09-19T09:02:29;99745.91;;;17.96;74.42
42671;BME280;28283;55.426;37.756;2023-09-19T09:07:31;99741.72;;;18.17;73.39
42671;BME280;28283;55.426;37.756;2023-09-19T09:12:34;99753.00;;;18.37;72.81
42671;BME280;28283;55.426;37.756;2023-09-19T09:17:36;99740.63;;;18.46;72.25
42671;BME280;28283;55.426;37.756;2023-09-19T09:22:37;99746.25;;;18.68;71.04
42671;BME280;28283;55.426;37.756;2023-09-19T09:27:40;99748.09;;;18.97;71.29
42671;BME280;28283;55.426;37.756;2023-09-19T09:32:40;99748.88;;;19.26;69.21
42671;BME280;28283;55.426;37.756;2023-09-19T09:37:41;99749.53;;;19.33;69.30
42671;BME280;28283;55.426;37.756;2023-09-19T09:42:43;99732.47;;;19.60;68.51
42671;BME280;28283;55.426;37.756;2023-09-19T09:47:47;99716.97;;;19.82;68.13
42671;BME280;28283;55.426;37.756;2023-09-19T09:53:23;99714.00;;;20.06;67.14
42671;BME280;28283;55.426;37.756;2023-09-19T09:58:28;99708.91;;;20.37;66.78
42671;BME280;28283;55.426;37.756;2023-09-19T10:03:38;99714.13;;;20.66;66.54
42671;BME280;28283;55.426;37.756;2023-09-19T10:08:39;99706.75;;;20.98;65.16
42671;BME280;28283;55.426;37.756;2023-09-19T10:13:43;99705.59;;;21.27;65.28
42671;BME280;28283;55.426;37.756;2023-09-19T10:18:46;99694.06;;;21.57;64.23
42671;BME280;28283;55.426;37.756;2023-09-19T10:23:50;99692.25;;;21.78;63.82
42671;BME280;28283;55.426;37.756;2023-09-19T10:28:52;99675.66;;;22.00;63.85
42671;BME280;28283;55.426;37.756;2023-09-19T10:33:55;99677.66;;;22.30;62.43
42671;BME280;28283;55.426;37.756;2023-09-19T10:38:57;99667.03;;;22.60;61.48
42671;BME280;28283;55.426;37.756;2023-09-19T10:44:03;99680.75;;;22.85;61.33
42671;BME280;28283;55.426;37.756;2023-09-19T10:49:05;99676.06;;;23.22;61.49
42671;BME280;28283;55.426;37.756;2023-09-19T10:54:10;99666.63;;;23.69;61.16
42671;BME280;28283;55.426;37.756;2023-09-19T10:59:16;99652.53;;;24.01;59.27
42671;BME280;28283;55.426;37.756;2023-09-19T11:04:31;99659.28;;;24.19;59.55
42671;BME280;28283;55.426;37.756;2023-09-19T11:14:46;99652.50;;;24.86;53.79
42671;BME280;28283;55.426;37.756;2023-09-19T11:30:30;99648.88;;;25.49;55.81
42671;BME280;28283;55.426;37.756;2023-09-19T11:41:18;99643.78;;;25.80;55.25
42671;BME280;28283;55.426;37.756;2023-09-19T11:46:13;99648.91;;;26.11;53.04
42671;BME280;28283;55.426;37.756;2023-09-19T11:51:17;99563.91;;;25.42;52.50
42671;BME280;28283;55.426;37.756;2023-09-19T11:56:27;99642.53;;;25.72;52.54
42671;BME280;28283;55.426;37.756;2023-09-19T12:01:32;99635.75;;;25.84;52.05
42671;BME280;28283;55.426;37.756;2023-09-19T12:06:34;99632.94;;;25.89;51.08
42671;BME280;28283;55.426;37.756;2023-09-19T12:11:41;99628.03;;;25.86;51.34
42671;BME280;28283;55.426;37.756;2023-09-19T12:16:42;99619.38;;;25.98;50.53
42671;BME280;28283;55.426;37.756;2023-09-19T12:21:59;99609.84;;;26.09;51.49
42671;BME280;28283;55.426;37.756;2023-09-19T12:27:05;99600.75;;;26.27;50.41
42671;BME280;28283;55.426;37.756;2023-09-19T12:32:05;99602.72;;;25.84;51.04
42671;BME280;28283;55.426;37.756;2023-09-19T12:37:07;99597.97;;;25.46;52.07
42671;BME280;28283;55.426;37.756;2023-09-19T12:42:24;99593.81;;;25.25;52.15
42671;BME280;28283;55.426;37.756;2023-09-19T12:47:28;99592.97;;;25.00;52.34
42671;BME280;28283;55.426;37.756;2023-09-19T12:52:34;99589.84;;;24.83;52.24
42671;BME280;28283;55.426;37.756;2023-09-19T12:57:35;99582.09;;;24.61;52.26
42671;BME280;28283;55.426;37.756;2023-09-19T13:02:36;99577.03;;;24.33;53.40
42671;BME280;28283;55.426;37.756;2023-09-19T13:07:39;99498.09;;;23.70;53.68
42671;BME280;28283;55.426;37.756;2023-09-19T13:12:43;99574.75;;;24.06;54.41
42671;BME280;28283;55.426;37.756;2023-09-19T13:17:48;99567.38;;;24.07;54.46
42671;BME280;28283;55.426;37.756;2023-09-19T13:22:49;99566.38;;;23.92;55.14
42671;BME280;28283;55.426;37.756;2023-09-19T13:27:54;99565.28;;;23.88;55.23
42671;BME280;28283;55.426;37.756;2023-09-19T13:33:05;99564.00;;;23.65;55.66
42671;BME280;28283;55.426;37.756;2023-09-19T13:38:09;99567.16;;;23.33;56.30
42671;BME280;28283;55.426;37.756;2023-09-19T13:43:12;99561.19;;;23.20;56.95
42671;BME280;28283;55.426;37.756;2023-09-19T13:48:13;99561.75;;;23.12;57.08
42671;BME280;28283;55.426;37.756;2023-09-19T13:53:14;99560.94;;;22.96;57.56
42671;BME280;28283;55.426;37.756;2023-09-19T13:58:14;99544.81;;;22.79;57.99
42671;BME280;28283;55.426;37.756;2023-09-19T14:03:15;99564.81;;;22.69;58.76
42671;BME280;28283;55.426;37.756;2023-09-19T14:08:15;99552.50;;;22.46;59.24
42671;BME280;28283;55.426;37.756;2023-09-19T14:13:16;99552.25;;;22.48;59.31
42671;BME280;28283;55.426;37.756;2023-09-19T14:18:16;99547.03;;;22.46;59.82
42671;BME280;28283;55.426;37.756;2023-09-19T14:23:18;99541.00;;;22.39;59.81
42671;BME280;28283;55.426;37.756;2023-09-19T14:28:18;99545.13;;;22.37;60.10
42671;BME280;28283;55.426;37.756;2023-09-19T14:33:20;99536.66;;;22.33;60.43
42671;BME280;28283;55.426;37.756;2023-09-19T14:38:21;99541.00;;;22.34;60.24
42671;BME280;28283;55.426;37.756;2023-09-19T14:43:21;99533.91;;;22.28;60.05
42671;BME280;28283;55.426;37.756;2023-09-19T14:48:22;99525.69;;;22.33;60.45
42671;BME280;28283;55.426;37.756;2023-09-19T14:53:26;99517.22;;;22.40;59.69
42671;BME280;28283;55.426;37.756;2023-09-19T14:58:28;99519.69;;;22.36;59.57
42671;BME280;28283;55.426;37.756;2023-09-19T15:03:30;99518.81;;;22.30;59.51
42671;BME280;28283;55.426;37.756;2023-09-19T15:08:30;99514.16;;;22.26;59.63
42671;BME280;28283;55.426;37.756;2023-09-19T15:13:31;99515.81;;;22.17;59.31
42671;BME280;28283;55.426;37.756;2023-09-19T15:18:32;99506.22;;;22.04;59.80
42671;BME280;28283;55.426;37.756;2023-09-19T15:23:34;99504.56;;;21.92;60.09
42671;BME280;28283;55.426;37.756;2023-09-19T15:28:34;99513.84;;;21.81;60.11
42671;BME280;28283;55.426;37.756;2023-09-19T15:33:35;99507.81;;;21.69;60.39
42671;BME280;28283;55.426;37.756;2023-09-19T15:43:57;99500.00;;;21.25;60.81
42671;BME280;28283;55.426;37.756;2023-09-19T15:48:59;99497.44;;;21.03;61.14
42671;BME280;28283;55.426;37.756;2023-09-19T15:54:01;99500.38;;;20.86;61.30
42671;BME280;28283;55.426;37.756;2023-09-19T15:59:02;99499.47;;;20.70;61.66
42671;BME280;28283;55.426;37.756;2023-09-19T16:04:03;99491.25;;;20.65;61.32
42671;BME280;28283;55.426;37.756;2023-09-19T16:09:04;99496.56;;;20.49;61.50
42671;BME280;28283;55.426;37.756;2023-09-19T16:14:04;99507.09;;;20.30;61.79
42671;BME280;28283;55.426;37.756;2023-09-19T16:19:09;99509.16;;;20.18;62.01
42671;BME280;28283;55.426;37.756;2023-09-19T16:24:10;99508.72;;;19.99;62.20
42671;BME280;28283;55.426;37.756;2023-09-19T16:29:11;99516.00;;;19.88;62.58
42671;BME280;28283;55.426;37.756;2023-09-19T16:34:11;99506.44;;;19.86;62.71
42671;BME280;28283;55.426;37.756;2023-09-19T16:39:12;99508.84;;;19.82;62.89
42671;BME280;28283;55.426;37.756;2023-09-19T16:44:12;99524.25;;;19.71;63.37
42671;BME280;28283;55.426;37.756;2023-09-19T16:49:13;99520.66;;;19.65;63.50
42671;BME280;28283;55.426;37.756;2023-09-19T16:54:14;99534.28;;;19.65;63.22
42671;BME280;28283;55.426;37.756;2023-09-19T16:59:15;99525.00;;;19.61;63.64
42671;BME280;28283;55.426;37.756;2023-09-19T17:04:16;99435.94;;;18.96;63.40
42671;BME280;28283;55.426;37.756;2023-09-19T17:09:17;99523.59;;;19.59;63.68
42671;BME280;28283;55.426;37.756;2023-09-19T17:14:18;99529.09;;;19.64;63.86
42671;BME280;28283;55.426;37.756;2023-09-19T17:19:19;99525.81;;;19.62;63.98
42671;BME280;28283;55.426;37.756;2023-09-19T17:24:22;99525.50;;;19.58;64.29
42671;BME280;28283;55.426;37.756;2023-09-19T17:29:23;99530.56;;;19.50;64.47
42671;BME280;28283;55.426;37.756;2023-09-19T17:34:23;99529.19;;;19.47;64.85
42671;BME280;28283;55.426;37.756;2023-09-19T17:39:23;99531.59;;;19.43;64.96
42671;BME280;28283;55.426;37.756;2023-09-19T17:44:24;99529.63;;;19.39;65.00
42671;BME280;28283;55.426;37.756;2023-09-19T17:49:25;99527.66;;;19.34;65.38
42671;BME280;28283;55.426;37.756;2023-09-19T17:54:25;99534.13;;;19.28;65.36
42671;BME280;28283;55.426;37.756;2023-09-19T17:59:26;99528.06;;;19.21;65.52
42671;BME280;28283;55.426;37.756;2023-09-19T18:04:26;99532.22;;;19.06;66.10
42671;BME280;28283;55.426;37.756;2023-09-19T18:09:28;99536.97;;;18.94;66.35
42671;BME280;28283;55.426;37.756;2023-09-19T18:14:29;99534.00;;;18.79;66.87
42671;BME280;28283;55.426;37.756;2023-09-19T18:19:32;99543.41;;;18.71;67.13
42671;BME280;28283;55.426;37.756;2023-09-19T18:24:33;99537.56;;;18.62;67.37
42671;BME280;28283;55.426;37.756;2023-09-19T18:29:34;99535.28;;;18.54;67.73
42671;BME280;28283;55.426;37.756;2023-09-19T18:34:34;99538.56;;;18.39;68.07
42671;BME280;28283;55.426;37.756;2023-09-19T18:39:36;99541.28;;;18.22;68.46
42671;BME280;28283;55.426;37.756;2023-09-19T18:44:36;99534.94;;;18.17;68.62
42671;BME280;28283;55.426;37.756;2023-09-19T18:49:38;99542.50;;;17.98;69.14
42671;BME280;28283;55.426;37.756;2023-09-19T18:54:38;99541.50;;;17.87;69.27
42671;BME280;28283;55.426;37.756;2023-09-19T18:59:39;99545.41;;;17.79;69.43
42671;BME280;28283;55.426;37.756;2023-09-19T19:04:39;99539.53;;;17.70;69.88
42671;BME280;28283;55.426;37.756;2023-09-19T19:09:40;99537.81;;;17.64;69.66
42671;BME280;28283;55.426;37.756;2023-09-19T19:14:40;99535.78;;;17.60;69.80
42671;BME280;28283;55.426;37.756;2023-09-19T19:19:44;99531.25;;;17.48;69.85
42671;BME280;28283;55.426;37.756;2023-09-19T19:24:45;99533.75;;;17.38;70.32
42671;BME280;28283;55.426;37.756;2023-09-19T19:29:46;99533.28;;;17.41;69.94
42671;BME280;28283;55.426;37.756;2023-09-19T19:34:47;99537.09;;;17.28;70.42
42671;BME280;28283;55.426;37.756;2023-09-19T19:39:47;99528.38;;;17.14;70.76
42671;BME280;28283;55.426;37.756;2023-09-19T19:44:48;99532.03;;;17.08;70.54
42671;BME280;28283;55.426;37.756;2023-09-19T19:49:54;99524.38;;;17.05;70.52
42671;BME280;28283;55.426;37.756;2023-09-19T19:54:54;99523.19;;;17.01;70.85
42671;BME280;28283;55.426;37.756;2023-09-19T19:59:55;99533.84;;;16.91;70.97
42671;BME280;28283;55.426;37.756;2023-09-19T20:04:58;99530.28;;;16.90;71.04
42671;BME280;28283;55.426;37.756;2023-09-19T20:09:58;99535.63;;;16.85;70.90
42671;BME280;28283;55.426;37.756;2023-09-19T20:14:59;99527.00;;;16.76;70.91
42671;BME280;28283;55.426;37.756;2023-09-19T20:19:59;99534.06;;;16.77;70.81
42671;BME280;28283;55.426;37.756;2023-09-19T20:25:00;99538.56;;;16.72;70.79
42671;BME280;28283;55.426;37.756;2023-09-19T20:30:05;99525.22;;;16.70;70.76
42671;BME280;28283;55.426;37.756;2023-09-19T20:35:07;99535.13;;;16.65;70.42
42671;BME280;28283;55.426;37.756;2023-09-19T20:40:07;99536.09;;;16.58;70.47
42671;BME280;28283;55.426;37.756;2023-09-19T20:45:11;99522.63;;;16.52;70.59
42671;BME280;28283;55.426;37.756;2023-09-19T20:50:14;99536.19;;;16.40;70.88
42671;BME280;28283;55.426;37.756;2023-09-19T20:55:15;99534.53;;;16.39;70.93
42671;BME280;28283;55.426;37.756;2023-09-19T21:00:16;99539.59;;;16.35;71.08
42671;BME280;28283;55.426;37.756;2023-09-19T21:05:16;99541.59;;;16.28;71.05
42671;BME280;28283;55.426;37.756;2023-09-19T21:10:19;99537.09;;;16.22;70.68
42671;BME280;28283;55.426;37.756;2023-09-19T21:15:19;99536.28;;;16.21;70.89
42671;BME280;28283;55.426;37.756;2023-09-19T21:20:20;99537.69;;;16.12;70.89
42671;BME280;28283;55.426;37.756;2023-09-19T21:25:22;99538.38;;;16.08;70.79
42671;BME280;28283;55.426;37.756;2023-09-19T21:30:22;99534.22;;;15.93;71.32
42671;BME280;28283;55.426;37.756;2023-09-19T21:35:23;99530.09;;;15.91;71.58
42671;BME280;28283;55.426;37.756;2023-09-19T21:40:23;99538.44;;;15.89;71.50
42671;BME280;28283;55.426;37.756;2023-09-19T21:45:24;99539.03;;;15.79;71.13
42671;BME280;28283;55.426;37.756;2023-09-19T21:50:24;99531.47;;;15.81;71.49
42671;BME280;28283;55.426;37.756;2023-09-19T21:55:28;99530.28;;;15.77;71.32
42671;BME280;28283;55.426;37.756;2023-09-19T22:00:29;99522.81;;;15.73;71.57
42671;BME280;28283;55.426;37.756;2023-09-19T22:05:42;99522.44;;;15.69;71.55
42671;BME280;28283;55.426;37.756;2023-09-19T22:10:43;99524.94;;;15.71;71.45
42671;BME280;28283;55.426;37.756;2023-09-19T22:15:44;99529.97;;;15.67;71.33
42671;BME280;28283;55.426;37.756;2023-09-19T22:20:45;99527.94;;;15.62;71.12
42671;BME280;28283;55.426;37.756;2023-09-19T22:25:46;99522.31;;;15.64;71.22
42671;BME280;28283;55.426;37.756;2023-09-19T22:30:47;99524.66;;;15.60;71.40
42671;BME280;28283;55.426;37.756;2023-09-19T22:35:47;99527.28;;;15.49;71.34
42671;BME280;28283;55.426;37.756;2023-09-19T22:40:51;99525.44;;;15.49;71.37
42671;BME280;28283;55.426;37.756;2023-09-19T22:45:52;99516.56;;;15.42;71.32
42671;BME280;28283;55.426;37.756;2023-09-19T22:50:52;99519.56;;;15.34;71.48
42671;BME280;28283;55.426;37.756;2023-09-19T22:55:59;99517.94;;;15.33;71.47
42671;BME280;28283;55.426;37.756;2023-09-19T23:01:09;99508.16;;;15.32;71.45
42671;BME280;28283;55.426;37.756;2023-09-19T23:06:14;99503.41;;;15.27;71.62
42671;BME280;28283;55.426;37.756;2023-09-19T23:11:16;99507.25;;;15.19;71.69
42671;BME280;28283;55.426;37.756;2023-09-19T23:16:22;99514.19;;;15.15;71.98
42671;BME280;28283;55.426;37.756;2023-09-19T23:21:33;99507.59;;;15.11;71.84
42671;BME280;28283;55.426;37.756;2023-09-19T23:26:33;99516.38;;;15.06;71.92
42671;BME280;28283;55.426;37.756;2023-09-19T23:31:36;99516.00;;;15.03;71.80
42671;BME280;28283;55.426;37.756;2023-09-19T23:36:40;99515.84;;;14.98;72.01
42671;BME280;28283;55.426;37.756;2023-09-19T23:41:40;99501.72;;;14.96;72.13
42671;BME280;28283;55.426;37.756;2023-09-19T23:46:41;99511.41;;;14.85;72.20
42671;BME280;28283;55.426;37.756;2023-09-19T23:51:42;99517.03;;;14.83;72.21
42671;BME280;28283;55.426;37.756;2023-09-19T23:56:44;99508.94;;;14.83;72.40
